Terminal Aerodrome Forecast
Issued by NWS

Home | Current Version | Previous Version | Text Only | Print | Product List | Glossary On
Versions: 1 2 3 4 5 6 7 8 9 10 11 12 13 14 15 16 17 18 19 20 21 22 23 24 25
000
FTUS43 KLOT 090145 AAA
TAFDPA
TAF AMD
KDPA 090145Z 0902/0924 09010KT 6SM -RA SCT025 OVC035
      TEMPO 0902/0903 3SM RA SCT015 OVC025
     FM090700 07012G22KT 5SM -RA BR SCT007 OVC015
      TEMPO 0909/0913 1 1/2SM RASN BR BKN007
     FM091300 06017G27KT 3SM -RA BR SCT007 OVC010
     FM091800 04015G25KT P6SM BKN015
     FM092100 03014G22KT P6SM BKN040=

USA.gov is the U.S. government's official web portal to all federal, state and local government web resources and services.